Time;durP1;ratioP1;P1;durP2;ratioP2;P2;SDS_P1;SDS_P2;PMS_P1;PMS_P2;Temp;Humidity;BMP_temperature;BMP_pressure;BME280_temperature;BME280_humidity;BME280_pressure;Samples;Min_cycle;Max_cycle;Signal;HPM_P1;HPM_P2
2022/04/19 00:00:44;;;;;;;11.82;5.68;;;;;;;;;;4992604;28;20026;-62
2022/04/19 00:03:12;;;;;;;15.55;5.63;;;;;;;;;;4992181;28;20472;-62
2022/04/19 00:05:38;;;;;;;12.02;5.55;;;;;;;;;;4992539;28;20072;-63
2022/04/19 00:08:05;;;;;;;12.77;5.10;;;;;;;;;;4992524;28;20034;-62
2022/04/19 00:10:32;;;;;;;13.15;5.18;;;;;;;;;;4992518;28;20031;-62
2022/04/19 00:12:59;;;;;;;14.00;5.72;;;;;;;;;;4991139;28;20435;-63
2022/04/19 00:15:27;;;;;;;14.55;4.70;;;;;;;;;;4992638;28;20349;-61
2022/04/19 00:17:54;;;;;;;8.63;4.20;;;;;;;;;;4992206;28;20066;-62
2022/04/19 00:20:21;;;;;;;10.88;5.00;;;;;;;;;;4992281;28;20026;-62
2022/04/19 00:22:49;;;;;;;14.38;5.07;;;;;;;;;;4992434;28;20109;-61
2022/04/19 00:25:15;;;;;;;11.38;4.70;;;;;;;;;;4991058;28;20050;-62
2022/04/19 00:27:41;;;;;;;9.73;5.00;;;;;;;;;;4992447;28;20110;-62
2022/04/19 00:30:07;;;;;;;11.77;4.28;;;;;;;;;;4992357;28;20101;-61
2022/04/19 00:32:33;;;;;;;13.07;4.50;;;;;;;;;;4992202;28;20024;-62
2022/04/19 00:34:59;;;;;;;11.70;3.75;;;;;;;;;;4992343;28;20118;-62
2022/04/19 00:37:25;;;;;;;10.52;3.90;;;;;;;;;;4993281;28;20368;-63
2022/04/19 00:39:51;;;;;;;8.23;3.60;;;;;;;;;;4995831;28;20084;-62
2022/04/19 00:42:17;;;;;;;9.95;4.40;;;;;;;;;;4995517;28;20022;-61
2022/04/19 00:44:43;;;;;;;10.63;3.92;;;;;;;;;;4995714;28;20128;-62
2022/04/19 00:47:10;;;;;;;7.28;3.83;;;;;;;;;;4995473;28;20085;-64
2022/04/19 00:49:38;;;;;;;9.70;3.72;;;;;;;;;;4995695;28;20388;-62
2022/04/19 00:52:04;;;;;;;10.52;4.75;;;;;;;;;;4995632;28;20166;-63
2022/04/19 00:54:30;;;;;;;8.18;3.83;;;;;;;;;;4994290;28;20032;-62
2022/04/19 00:56:56;;;;;;;8.90;3.92;;;;;;;;;;4995510;28;20032;-62
2022/04/19 00:59:22;;;;;;;10.73;4.05;;;;;;;;;;4995617;28;20033;-61
2022/04/19 01:01:49;;;;;;;9.80;3.95;;;;;;;;;;4995222;28;20109;-62
2022/04/19 01:04:14;;;;;;;15.48;4.68;;;;;;;;;;4995034;28;20117;-62
2022/04/19 01:06:40;;;;;;;11.35;4.13;;;;;;;;;;4995405;28;20125;-62
2022/04/19 01:09:06;;;;;;;8.82;3.85;;;;;;;;;;4995344;28;20079;-62
2022/04/19 01:14:17;;;;;;;9.95;3.83;;;;;;;;;;4995190;28;20034;-63
2022/04/19 01:16:43;;;;;;;11.65;3.63;;;;;;;;;;4994875;28;20026;-62
2022/04/19 01:19:16;;;;;;;9.65;3.67;;;;;;;;;;4995254;28;20514;-62
2022/04/19 01:21:48;;;;;;;5.78;2.63;;;;;;;;;;4995134;28;20027;-62
2022/04/19 01:24:19;;;;;;;6.82;3.38;;;;;;;;;;4994984;28;20030;-62
2022/04/19 01:26:45;;;;;;;7.82;3.10;;;;;;;;;;4995057;28;20384;-62
2022/04/19 01:29:12;;;;;;;8.05;3.13;;;;;;;;;;4994906;28;20635;-62
2022/04/19 01:31:39;;;;;;;7.70;3.30;;;;;;;;;;4993508;28;20523;-61
2022/04/19 01:34:05;;;;;;;5.63;3.10;;;;;;;;;;4994878;28;20027;-62
2022/04/19 01:36:33;;;;;;;7.78;2.80;;;;;;;;;;4993623;28;20464;-62
2022/04/19 01:38:59;;;;;;;7.60;3.10;;;;;;;;;;4994885;28;20108;-62
2022/04/19 01:41:25;;;;;;;5.75;2.90;;;;;;;;;;4994599;28;20062;-62
2022/04/19 01:43:51;;;;;;;6.30;3.42;;;;;;;;;;4994527;28;20080;-62
2022/04/19 01:46:17;;;;;;;5.45;2.78;;;;;;;;;;4995081;28;20026;-62
2022/04/19 01:48:43;;;;;;;7.18;3.03;;;;;;;;;;4994430;28;20109;-62
2022/04/19 01:51:08;;;;;;;4.82;2.88;;;;;;;;;;4994594;28;20077;-62
2022/04/19 01:53:34;;;;;;;6.28;2.97;;;;;;;;;;4994495;28;20101;-62
2022/04/19 01:55:59;;;;;;;6.90;3.13;;;;;;;;;;4994470;28;20033;-62
2022/04/19 01:58:25;;;;;;;6.30;3.00;;;;;;;;;;4994250;28;20523;-63
2022/04/19 02:00:50;;;;;;;7.00;3.30;;;;;;;;;;4994444;28;20054;-62
2022/04/19 02:03:17;;;;;;;8.25;3.25;;;;;;;;;;4994091;28;20408;-62
2022/04/19 02:05:43;;;;;;;8.05;3.10;;;;;;;;;;4994240;28;20121;-63
2022/04/19 02:08:08;;;;;;;4.85;3.13;;;;;;;;;;4994262;28;20075;-64
2022/04/19 02:10:34;;;;;;;10.77;3.20;;;;;;;;;;4994241;28;20095;-64
2022/04/19 02:12:59;;;;;;;8.77;3.40;;;;;;;;;;4993979;28;20030;-63
2022/04/19 02:15:25;;;;;;;6.78;3.15;;;;;;;;;;4993936;28;20034;-64
2022/04/19 02:17:50;;;;;;;6.25;3.38;;;;;;;;;;4993947;28;20414;-64
2022/04/19 02:20:17;;;;;;;6.03;3.15;;;;;;;;;;4993995;28;20026;-64
2022/04/19 02:22:43;;;;;;;7.85;3.35;;;;;;;;;;4994114;28;20069;-63
2022/04/19 02:25:12;;;;;;;7.00;3.58;;;;;;;;;;4993809;28;20034;-63
2022/04/19 02:27:39;;;;;;;7.05;3.13;;;;;;;;;;4993662;28;20472;-64
2022/04/19 02:30:06;;;;;;;6.68;3.40;;;;;;;;;;4993657;28;20026;-62
2022/04/19 02:32:33;;;;;;;8.73;3.00;;;;;;;;;;4993880;28;20026;-63
2022/04/19 02:34:59;;;;;;;5.68;3.20;;;;;;;;;;4993624;28;20110;-63
2022/04/19 02:37:25;;;;;;;7.22;2.92;;;;;;;;;;4993731;28;20022;-64
2022/04/19 02:39:50;;;;;;;8.27;3.72;;;;;;;;;;4993643;28;20034;-63
2022/04/19 02:42:17;;;;;;;7.10;3.28;;;;;;;;;;4993183;28;20392;-63
2022/04/19 02:44:43;;;;;;;6.00;2.97;;;;;;;;;;4993629;28;20035;-63
2022/04/19 02:47:08;;;;;;;7.35;3.50;;;;;;;;;;4993583;28;20439;-63
2022/04/19 02:49:34;;;;;;;7.55;3.35;;;;;;;;;;4992499;28;20026;-63
2022/04/19 02:52:00;;;;;;;8.93;3.80;;;;;;;;;;4993482;28;20030;-62
2022/04/19 02:54:26;;;;;;;8.38;3.50;;;;;;;;;;4993247;28;20467;-64
2022/04/19 02:56:51;;;;;;;7.07;3.30;;;;;;;;;;4993117;28;20084;-64
2022/04/19 02:59:17;;;;;;;6.22;3.67;;;;;;;;;;4993238;28;20091;-63
2022/04/19 03:01:43;;;;;;;6.97;3.70;;;;;;;;;;4992810;28;20058;-63
2022/04/19 03:04:08;;;;;;;6.32;3.40;;;;;;;;;;4993110;28;20057;-63
2022/04/19 03:06:34;;;;;;;7.97;3.72;;;;;;;;;;4993176;28;20038;-62
2022/04/19 03:09:00;;;;;;;7.30;3.63;;;;;;;;;;4993231;28;20049;-64
2022/04/19 03:11:26;;;;;;;10.85;4.28;;;;;;;;;;4993086;28;20069;-63
2022/04/19 03:13:52;;;;;;;7.15;3.75;;;;;;;;;;4991944;28;20073;-63
2022/04/19 03:16:17;;;;;;;9.82;3.80;;;;;;;;;;4993015;28;20031;-63
2022/04/19 03:18:43;;;;;;;8.90;4.05;;;;;;;;;;4993150;28;20026;-63
2022/04/19 03:21:13;;;;;;;7.82;3.80;;;;;;;;;;4993309;28;20029;-63
2022/04/19 03:29:09;;;;;;;7.22;3.83;;;;;;;;;;4993264;28;20378;-64
2022/04/19 03:31:34;;;;;;;9.75;3.90;;;;;;;;;;4992955;28;20062;-63
2022/04/19 03:34:04;;;;;;;10.23;4.30;;;;;;;;;;4992912;28;20054;-63
2022/04/19 03:36:30;;;;;;;10.65;4.25;;;;;;;;;;4992884;28;20030;-63
2022/04/19 03:38:55;;;;;;;6.85;4.10;;;;;;;;;;4992916;28;20025;-62
2022/04/19 03:41:21;;;;;;;8.13;3.92;;;;;;;;;;4992428;28;20026;-63
2022/04/19 03:43:47;;;;;;;10.55;4.00;;;;;;;;;;4992951;28;20101;-64
2022/04/19 03:46:13;;;;;;;6.65;3.80;;;;;;;;;;4992720;28;20025;-63
2022/04/19 03:48:38;;;;;;;6.93;3.97;;;;;;;;;;4992820;28;20421;-63
2022/04/19 03:51:04;;;;;;;7.38;4.07;;;;;;;;;;4992709;28;20029;-63
2022/04/19 03:53:30;;;;;;;7.88;3.97;;;;;;;;;;4992801;28;20112;-64
2022/04/19 03:55:56;;;;;;;7.88;3.70;;;;;;;;;;4992439;28;20033;-63
2022/04/19 03:58:21;;;;;;;8.75;4.07;;;;;;;;;;4992645;28;20030;-63
2022/04/19 04:00:48;;;;;;;7.15;3.92;;;;;;;;;;4992679;28;20058;-64
2022/04/19 04:03:13;;;;;;;9.68;4.25;;;;;;;;;;4992351;28;20032;-64
2022/04/19 04:05:39;;;;;;;8.52;4.32;;;;;;;;;;4992637;28;20028;-62
2022/04/19 04:08:05;;;;;;;7.35;4.10;;;;;;;;;;4992656;28;20383;-64
2022/04/19 04:10:30;;;;;;;7.50;3.90;;;;;;;;;;4992425;28;20036;-63
2022/04/19 04:12:57;;;;;;;9.63;4.57;;;;;;;;;;4995865;28;20030;-63
2022/04/19 04:15:23;;;;;;;8.50;4.00;;;;;;;;;;4996267;28;20110;-64
2022/04/19 04:17:48;;;;;;;7.82;3.70;;;;;;;;;;4996333;28;20109;-62
2022/04/19 04:20:14;;;;;;;8.65;4.20;;;;;;;;;;4996278;28;20053;-63
2022/04/19 04:22:39;;;;;;;8.55;4.00;;;;;;;;;;4996123;28;20084;-64
2022/04/19 04:25:05;;;;;;;8.00;4.15;;;;;;;;;;4995770;28;20018;-63
2022/04/19 04:27:30;;;;;;;7.70;3.70;;;;;;;;;;4994713;28;20494;-64
2022/04/19 04:29:56;;;;;;;6.88;3.72;;;;;;;;;;4996133;28;20459;-63
2022/04/19 04:32:21;;;;;;;9.82;4.03;;;;;;;;;;4995965;28;20029;-63
2022/04/19 04:34:47;;;;;;;9.43;4.05;;;;;;;;;;4995805;28;20101;-63
2022/04/19 04:37:12;;;;;;;11.93;4.70;;;;;;;;;;4995904;28;20085;-64
2022/04/19 04:39:38;;;;;;;7.88;4.13;;;;;;;;;;4995943;28;20026;-64
2022/04/19 04:42:04;;;;;;;7.85;4.68;;;;;;;;;;4994308;28;20042;-61
2022/04/19 04:44:30;;;;;;;8.98;3.78;;;;;;;;;;4995881;28;20459;-64
2022/04/19 04:49:40;;;;;;;7.53;4.40;;;;;;;;;;4995851;28;20118;-63
2022/04/19 04:52:10;;;;;;;7.85;4.00;;;;;;;;;;4995561;28;20113;-63
2022/04/19 04:54:37;;;;;;;5.50;3.30;;;;;;;;;;4995431;28;20038;-64
2022/04/19 04:57:04;;;;;;;6.50;3.78;;;;;;;;;;4995508;28;20026;-63
2022/04/19 04:59:30;;;;;;;9.15;3.47;;;;;;;;;;4995562;28;20026;-64
2022/04/19 05:01:57;;;;;;;8.27;4.05;;;;;;;;;;4995310;28;20033;-63
2022/04/19 05:04:22;;;;;;;7.25;3.60;;;;;;;;;;4995023;28;20537;-63
2022/04/19 05:06:48;;;;;;;7.78;3.10;;;;;;;;;;4995178;28;20038;-63
2022/04/19 05:09:13;;;;;;;5.82;3.33;;;;;;;;;;4995390;28;20022;-64
2022/04/19 05:11:39;;;;;;;9.23;3.47;;;;;;;;;;4995243;28;20081;-63
2022/04/19 05:14:07;;;;;;;7.72;3.20;;;;;;;;;;4995252;28;20080;-63
2022/04/19 05:16:36;;;;;;;4.80;2.95;;;;;;;;;;4995093;28;20030;-63
2022/04/19 05:19:05;;;;;;;6.03;2.80;;;;;;;;;;4995055;28;20046;-64
2022/04/19 05:21:30;;;;;;;7.07;3.60;;;;;;;;;;4994829;28;20034;-64
2022/04/19 05:23:56;;;;;;;7.43;3.05;;;;;;;;;;4994431;28;20037;-64
2022/04/19 05:26:24;;;;;;;6.78;3.10;;;;;;;;;;4994851;28;20058;-64
2022/04/19 05:28:50;;;;;;;5.80;2.80;;;;;;;;;;4994890;28;20038;-63
2022/04/19 05:31:16;;;;;;;6.93;3.17;;;;;;;;;;4994965;28;20038;-63
2022/04/19 05:33:41;;;;;;;5.15;2.67;;;;;;;;;;4994904;28;20030;-63
2022/04/19 05:36:07;;;;;;;8.02;3.00;;;;;;;;;;4994525;28;20026;-64
2022/04/19 05:38:32;;;;;;;4.07;2.45;;;;;;;;;;4994812;28;20464;-62
2022/04/19 05:40:58;;;;;;;5.80;3.17;;;;;;;;;;4994638;28;20030;-63
2022/04/19 05:43:25;;;;;;;4.55;2.53;;;;;;;;;;4994657;28;20042;-63
2022/04/19 05:45:50;;;;;;;6.47;2.88;;;;;;;;;;4994631;28;20520;-63
2022/04/19 05:48:16;;;;;;;6.40;2.70;;;;;;;;;;4994548;28;20026;-63
2022/04/19 05:50:41;;;;;;;4.78;2.88;;;;;;;;;;4994305;28;20030;-63
2022/04/19 05:53:07;;;;;;;5.22;2.67;;;;;;;;;;4994079;28;20022;-64
2022/04/19 05:55:32;;;;;;;5.93;2.42;;;;;;;;;;4981497;28;20031;-64
2022/04/19 05:57:59;;;;;;;5.25;2.60;;;;;;;;;;4987138;28;20035;-63
2022/04/19 06:00:24;;;;;;;3.78;2.00;;;;;;;;;;4992322;28;20037;-63
2022/04/19 06:05:35;;;;;;;12.93;6.13;;;;;;;;;;4992151;28;20092;-64
2022/04/19 06:08:01;;;;;;;7.38;3.40;;;;;;;;;;4993684;28;20105;-62
2022/04/19 06:10:26;;;;;;;5.57;2.40;;;;;;;;;;4993504;28;20112;-63
2022/04/19 06:12:52;;;;;;;4.43;2.20;;;;;;;;;;4993985;28;20029;-62
2022/04/19 06:15:17;;;;;;;3.88;2.00;;;;;;;;;;4994002;28;20035;-62
2022/04/19 06:17:43;;;;;;;2.70;1.65;;;;;;;;;;4993894;28;20053;-63
2022/04/19 06:20:10;;;;;;;4.72;1.98;;;;;;;;;;4990538;28;20058;-63
2022/04/19 06:22:35;;;;;;;2.90;1.45;;;;;;;;;;4992097;28;20399;-62
2022/04/19 06:25:01;;;;;;;2.72;1.60;;;;;;;;;;4988689;28;20105;-62
2022/04/19 06:27:27;;;;;;;3.17;1.77;;;;;;;;;;4993956;28;20487;-63
2022/04/19 06:29:53;;;;;;;5.20;1.70;;;;;;;;;;4993420;28;20484;-62
2022/04/19 06:32:22;;;;;;;4.82;2.65;;;;;;;;;;4993717;28;20035;-63
2022/04/19 06:34:48;;;;;;;3.63;2.22;;;;;;;;;;4992723;28;20448;-63
2022/04/19 06:37:14;;;;;;;7.90;1.85;;;;;;;;;;4993697;28;20403;-62
2022/04/19 06:39:39;;;;;;;5.85;1.80;;;;;;;;;;4993855;28;20033;-62
2022/04/19 06:42:05;;;;;;;8.77;3.28;;;;;;;;;;4993448;28;20041;-62
2022/04/19 06:44:31;;;;;;;5.28;2.10;;;;;;;;;;4993586;28;20485;-62
2022/04/19 06:46:56;;;;;;;3.28;1.92;;;;;;;;;;4993512;28;20033;-62
2022/04/19 06:49:22;;;;;;;3.08;1.90;;;;;;;;;;4993433;28;20027;-62
2022/04/19 06:51:48;;;;;;;3.72;1.83;;;;;;;;;;4992217;28;20479;-62
2022/04/19 06:54:15;;;;;;;3.60;1.90;;;;;;;;;;4991817;28;20405;-62
2022/04/19 06:56:41;;;;;;;2.53;1.63;;;;;;;;;;4991536;28;20035;-63
2022/04/19 06:59:08;;;;;;;7.07;1.80;;;;;;;;;;4991949;28;20090;-63
2022/04/19 07:01:34;;;;;;;2.85;1.70;;;;;;;;;;4989571;28;20022;-61
2022/04/19 07:03:59;;;;;;;3.83;1.70;;;;;;;;;;4984503;28;20034;-62
2022/04/19 07:06:25;;;;;;;5.03;1.80;;;;;;;;;;4991350;28;20072;-63
2022/04/19 07:08:50;;;;;;;7.07;1.67;;;;;;;;;;4991624;28;20487;-61
2022/04/19 07:11:16;;;;;;;3.85;1.40;;;;;;;;;;4991797;28;20041;-62
2022/04/19 07:13:44;;;;;;;5.10;1.65;;;;;;;;;;4992628;28;20022;-63
2022/04/19 07:16:10;;;;;;;3.30;1.70;;;;;;;;;;4993083;28;20065;-63
2022/04/19 07:18:36;;;;;;;3.20;1.80;;;;;;;;;;4991978;28;20116;-62
2022/04/19 07:26:40;;;;;;;4.50;1.98;;;;;;;;;;4993261;28;20088;-62
2022/04/19 07:29:10;;;;;;;3.00;1.67;;;;;;;;;;4993060;28;20018;-62
2022/04/19 07:31:37;;;;;;;3.85;2.05;;;;;;;;;;4992934;28;20044;-61
2022/04/19 07:34:03;;;;;;;7.07;2.20;;;;;;;;;;4990607;28;20511;-62
2022/04/19 07:36:28;;;;;;;3.33;1.83;;;;;;;;;;4991331;28;20117;-62
2022/04/19 07:38:54;;;;;;;2.90;1.50;;;;;;;;;;4992895;28;20022;-62
2022/04/19 07:41:21;;;;;;;2.63;1.65;;;;;;;;;;4992906;28;20065;-62
2022/04/19 07:43:47;;;;;;;2.55;1.48;;;;;;;;;;4988791;28;20444;-62
2022/04/19 07:46:16;;;;;;;4.22;1.77;;;;;;;;;;4988637;28;20042;-62
2022/04/19 07:48:43;;;;;;;4.30;1.90;;;;;;;;;;4996848;28;20104;-63
2022/04/19 07:51:09;;;;;;;3.72;1.98;;;;;;;;;;4996756;28;20050;-63
2022/04/19 07:53:35;;;;;;;4.03;1.50;;;;;;;;;;4996044;28;20026;-62
2022/04/19 07:56:01;;;;;;;6.18;2.10;;;;;;;;;;4996161;28;20085;-62
2022/04/19 07:58:26;;;;;;;4.32;1.90;;;;;;;;;;4996694;28;20065;-63
2022/04/19 08:00:52;;;;;;;2.85;1.67;;;;;;;;;;4996346;28;20057;-63
2022/04/19 08:03:17;;;;;;;5.75;2.08;;;;;;;;;;4996458;28;20023;-63
2022/04/19 08:05:43;;;;;;;4.03;1.80;;;;;;;;;;4996574;28;20034;-63
2022/04/19 08:08:10;;;;;;;4.43;1.95;;;;;;;;;;4996133;28;20480;-63
2022/04/19 08:10:36;;;;;;;4.60;2.08;;;;;;;;;;4991712;28;20041;-62
2022/04/19 08:13:01;;;;;;;4.55;1.80;;;;;;;;;;4995116;28;20335;-63
2022/04/19 08:15:27;;;;;;;5.22;1.95;;;;;;;;;;4994543;28;20034;-64
2022/04/19 08:17:53;;;;;;;4.32;1.85;;;;;;;;;;4994960;28;20018;-62
2022/04/19 08:20:18;;;;;;;4.88;2.00;;;;;;;;;;4994899;28;20053;-63
2022/04/19 08:22:46;;;;;;;4.90;1.70;;;;;;;;;;4995445;28;20034;-62
2022/04/19 08:25:12;;;;;;;6.88;2.03;;;;;;;;;;4993974;28;20384;-62
2022/04/19 08:27:45;;;;;;;5.63;2.67;;;;;;;;;;4996184;28;20030;-63
2022/04/19 08:30:15;;;;;;;5.75;2.88;;;;;;;;;;4995178;28;20026;-63
2022/04/19 08:32:42;;;;;;;5.57;2.35;;;;;;;;;;4995477;28;20030;-63
2022/04/19 08:35:09;;;;;;;2.90;1.70;;;;;;;;;;4994575;28;20026;-63
2022/04/19 08:37:36;;;;;;;5.47;1.70;;;;;;;;;;4996055;28;20054;-63
2022/04/19 08:40:06;;;;;;;4.93;1.60;;;;;;;;;;4995649;28;20395;-63
2022/04/19 08:42:33;;;;;;;3.92;1.77;;;;;;;;;;4994439;28;20029;-63
2022/04/19 08:45:03;;;;;;;5.95;2.90;;;;;;;;;;4994189;28;20474;-63
2022/04/19 08:47:33;;;;;;;8.52;3.35;;;;;;;;;;4994417;28;20030;-64
2022/04/19 08:50:08;;;;;;;2.47;1.70;;;;;;;;;;4994139;28;20029;-63
2022/04/19 08:52:33;;;;;;;4.97;2.47;;;;;;;;;;4994224;28;20146;-62
2022/04/19 08:57:44;;;;;;;3.47;1.88;;;;;;;;;;4991026;28;20038;-63
2022/04/19 09:00:10;;;;;;;2.83;1.70;;;;;;;;;;4993730;28;20075;-61
2022/04/19 09:02:39;;;;;;;6.97;1.85;;;;;;;;;;4994061;28;20022;-60
2022/04/19 09:05:15;;;;;;;5.07;1.60;;;;;;;;;;4991595;28;20361;-62
2022/04/19 09:07:41;;;;;;;2.85;1.58;;;;;;;;;;4994040;28;20026;-63
2022/04/19 09:10:11;;;;;;;3.45;1.63;;;;;;;;;;4994061;28;20101;-63
2022/04/19 09:12:36;;;;;;;;;;;;;;;;;;4993109;28;20022;-63
2022/04/19 09:15:08;;;;;;;3.30;2.05;;;;;;;;;;4993939;28;19914;-63
2022/04/19 09:17:41;;;;;;;3.00;1.70;;;;;;;;;;4993932;28;20392;-62
2022/04/19 09:20:15;;;;;;;2.13;1.40;;;;;;;;;;4991650;28;20026;-61
2022/04/19 09:22:42;;;;;;;2.33;1.50;;;;;;;;;;4993451;28;20026;-61
2022/04/19 09:25:20;;;;;;;4.28;1.63;;;;;;;;;;4993497;28;20030;-61
2022/04/19 09:27:47;;;;;;;2.53;1.60;;;;;;;;;;4991325;28;20033;-62
2022/04/19 09:30:23;;;;;;;9.70;1.92;;;;;;;;;;4993528;28;20026;-61
2022/04/19 09:33:02;;;;;;;2.90;1.58;;;;;;;;;;4991566;28;20476;-62
2022/04/19 09:35:37;;;;;;;3.53;1.38;;;;;;;;;;4991325;28;20030;-62
2022/04/19 09:38:08;;;;;;;3.85;1.88;;;;;;;;;;4991025;28;20033;-62
2022/04/19 09:40:38;;;;;;;3.08;1.50;;;;;;;;;;4993251;28;20088;-62
2022/04/19 09:43:21;;;;;;;5.70;1.90;;;;;;;;;;4990730;28;20541;-61
2022/04/19 09:45:55;;;;;;;3.72;1.58;;;;;;;;;;4991427;28;20038;-62
2022/04/19 09:48:23;;;;;;;4.53;1.60;;;;;;;;;;4993094;28;20492;-62
2022/04/19 09:51:03;;;;;;;2.67;1.58;;;;;;;;;;4993267;28;20041;-62
2022/04/19 09:53:40;;;;;;;;;;;;;;;;;;4991819;28;20031;-62
2022/04/19 09:56:14;;;;;;;2.25;1.50;;;;;;;;;;4990810;28;20027;-61
2022/04/19 09:58:41;;;;;;;3.40;1.52;;;;;;;;;;4992541;28;20026;-62
2022/04/19 10:01:07;;;;;;;2.50;1.33;;;;;;;;;;4992763;28;20109;-62
2022/04/19 10:09:04;;;;;;;3.60;1.60;;;;;;;;;;4994219;28;20081;-61
2022/04/19 10:11:30;;;;;;;2.33;1.50;;;;;;;;;;4992167;28;20018;-62
2022/04/19 10:13:56;;;;;;;3.65;1.60;;;;;;;;;;4977063;28;20030;-62
2022/04/19 10:16:23;;;;;;;3.40;1.40;;;;;;;;;;4993759;28;20042;-62
2022/04/19 10:18:49;;;;;;;2.50;1.48;;;;;;;;;;4984946;28;20035;-62
2022/04/19 10:21:18;;;;;;;2.55;1.30;;;;;;;;;;4974463;28;20050;-61
2022/04/19 10:23:45;;;;;;;2.90;1.30;;;;;;;;;;4989219;28;20023;-62
2022/04/19 10:26:18;;;;;;;3.60;1.50;;;;;;;;;;4983664;28;20019;-62
2022/04/19 10:28:46;;;;;;;9.65;1.67;;;;;;;;;;4993533;28;20317;-62
2022/04/19 10:31:12;;;;;;;3.40;1.60;;;;;;;;;;4993866;28;20357;-62
2022/04/19 10:33:38;;;;;;;2.35;1.40;;;;;;;;;;4987633;28;20074;-62
2022/04/19 10:36:36;;;;;;;6.65;1.83;;;;;;;;;;4992641;28;20033;-62
2022/04/19 10:39:22;;;;;;;4.18;1.50;;;;;;;;;;4985492;28;20415;-61
2022/04/19 10:41:52;;;;;;;4.15;1.38;;;;;;;;;;4987056;28;21742;-62
2022/04/19 10:44:32;;;;;;;3.72;1.58;;;;;;;;;;4992618;28;20030;-62
2022/04/19 10:47:26;;;;;;;3.93;1.30;;;;;;;;;;4992877;28;20057;-62
2022/04/19 10:49:56;;;;;;;3.17;1.40;;;;;;;;;;4993356;28;20296;-62
2022/04/19 10:52:40;;;;;;;2.47;1.40;;;;;;;;;;4993388;28;20022;-61
2022/04/19 10:55:08;;;;;;;2.72;1.50;;;;;;;;;;4993271;28;20026;-63
2022/04/19 11:00:49;;;;;;;6.50;1.40;;;;;;;;;;4993334;28;20034;-61
2022/04/19 11:03:18;;;;;;;3.70;1.70;;;;;;;;;;4992993;28;20488;-62
2022/04/19 11:05:47;;;;;;;3.97;1.40;;;;;;;;;;4993285;28;20435;-61
2022/04/19 11:08:37;;;;;;;3.37;1.50;;;;;;;;;;4991733;28;20052;-61
2022/04/19 11:11:03;;;;;;;5.18;1.50;;;;;;;;;;4993144;28;20027;-62
2022/04/19 11:13:32;;;;;;;3.00;1.40;;;;;;;;;;4993398;28;20034;-62
2022/04/19 11:16:03;;;;;;;4.80;1.70;;;;;;;;;;4992864;28;20026;-62
2022/04/19 11:18:31;;;;;;;3.50;1.60;;;;;;;;;;4993046;28;20496;-62
2022/04/19 11:21:02;;;;;;;2.53;1.42;;;;;;;;;;4991577;28;20026;-62
2022/04/19 11:23:29;;;;;;;2.53;1.40;;;;;;;;;;4992989;28;20383;-62
2022/04/19 11:25:55;;;;;;;2.83;1.30;;;;;;;;;;4992482;28;20464;-62
2022/04/19 11:28:25;;;;;;;2.85;1.60;;;;;;;;;;4992907;28;20029;-62
2022/04/19 11:30:54;;;;;;;4.13;1.58;;;;;;;;;;4992670;28;20022;-62
2022/04/19 11:33:34;;;;;;;3.80;1.80;;;;;;;;;;4992779;28;20117;-62
2022/04/19 11:36:29;;;;;;;3.53;1.80;;;;;;;;;;4992887;28;20058;-62
2022/04/19 11:38:54;;;;;;;2.97;1.60;;;;;;;;;;4990654;28;20045;-62
2022/04/19 11:46:51;;;;;;;4.95;1.50;;;;;;;;;;5012338;28;20026;-62
2022/04/19 11:49:19;;;;;;;2.95;1.40;;;;;;;;;;4997219;28;20026;-62
2022/04/19 11:51:55;;;;;;;2.97;1.25;;;;;;;;;;4982775;28;20027;-62
2022/04/19 11:54:29;;;;;;;2.97;1.40;;;;;;;;;;4992478;28;20034;-63
2022/04/19 11:57:05;;;;;;;9.02;1.63;;;;;;;;;;4992389;28;20026;-63
2022/04/19 11:59:35;;;;;;;3.25;1.55;;;;;;;;;;4992886;28;20027;-62
2022/04/19 12:02:02;;;;;;;3.63;1.65;;;;;;;;;;4992744;28;20034;-62
2022/04/19 12:04:28;;;;;;;3.72;1.60;;;;;;;;;;4999719;28;20046;-62
2022/04/19 12:06:57;;;;;;;3.65;1.67;;;;;;;;;;5011888;28;20113;-61
2022/04/19 12:09:22;;;;;;;4.72;1.65;;;;;;;;;;5012007;28;20032;-62
2022/04/19 12:11:49;;;;;;;3.00;1.50;;;;;;;;;;5012162;28;20490;-61
2022/04/19 12:14:25;;;;;;;3.90;1.50;;;;;;;;;;5011804;28;20029;-62
2022/04/19 12:17:05;;;;;;;4.38;1.60;;;;;;;;;;4972885;28;20097;-62
2022/04/19 12:19:41;;;;;;;3.60;1.30;;;;;;;;;;4973038;28;20023;-61
2022/04/19 12:22:21;;;;;;;2.80;1.20;;;;;;;;;;4972601;28;20117;-61
2022/04/19 12:24:53;;;;;;;2.85;1.58;;;;;;;;;;4972796;28;20030;-62
2022/04/19 12:27:34;;;;;;;4.43;1.48;;;;;;;;;;4973206;28;20058;-61
2022/04/19 12:30:08;;;;;;;2.53;1.63;;;;;;;;;;4972881;28;20368;-63
2022/04/19 12:32:59;;;;;;;5.50;1.35;;;;;;;;;;4972776;28;20101;-60
2022/04/19 12:35:35;;;;;;;3.05;1.70;;;;;;;;;;4976305;28;20491;-62
2022/04/19 12:38:16;;;;;;;2.38;1.33;;;;;;;;;;4987955;28;20562;-62
2022/04/19 12:40:43;;;;;;;2.83;1.30;;;;;;;;;;4993074;28;20518;-61
2022/04/19 12:43:10;;;;;;;2.83;1.30;;;;;;;;;;4992613;28;20033;-62
2022/04/19 12:45:37;;;;;;;2.85;1.40;;;;;;;;;;4994532;28;20479;-64
2022/04/19 12:48:04;;;;;;;2.47;1.50;;;;;;;;;;4994455;28;20464;-64
2022/04/19 12:50:30;;;;;;;2.83;1.45;;;;;;;;;;4993963;28;20086;-63
2022/04/19 12:52:56;;;;;;;5.40;1.60;;;;;;;;;;4993653;28;20563;-62
2022/04/19 12:58:46;;;;;;;8.07;2.42;;;;;;;;;;4993793;28;20116;-64
2022/04/19 13:01:13;;;;;;;4.20;1.95;;;;;;;;;;4991508;28;20489;-63
2022/04/19 13:03:39;;;;;;;3.20;1.88;;;;;;;;;;4993859;28;20443;-63
2022/04/19 13:14:17;;;;;;;3.25;1.60;;;;;;;;;;4993779;28;20076;-63
2022/04/19 13:16:43;;;;;;;4.47;1.48;;;;;;;;;;4985847;28;20113;-64
2022/04/19 13:19:08;;;;;;;5.97;1.60;;;;;;;;;;4993769;28;20064;-63
2022/04/19 13:21:34;;;;;;;4.25;1.60;;;;;;;;;;4991385;28;20019;-64
2022/04/19 13:23:59;;;;;;;3.95;1.40;;;;;;;;;;4994964;28;20161;-63
2022/04/19 13:26:25;;;;;;;7.60;1.88;;;;;;;;;;4994739;28;20041;-62
2022/04/19 13:28:51;;;;;;;5.47;1.58;;;;;;;;;;5001947;28;20036;-63
2022/04/19 13:31:16;;;;;;;5.90;1.77;;;;;;;;;;5014419;28;20022;-63
2022/04/19 13:33:42;;;;;;;4.40;1.60;;;;;;;;;;5014461;28;20033;-63
2022/04/19 13:36:08;;;;;;;10.13;2.08;;;;;;;;;;5014095;28;20030;-64
2022/04/19 13:38:36;;;;;;;4.78;1.45;;;;;;;;;;5014335;28;20110;-64
2022/04/19 13:41:02;;;;;;;3.63;1.92;;;;;;;;;;4996013;28;20030;-62
2022/04/19 13:43:27;;;;;;;4.25;1.60;;;;;;;;;;4994699;28;20404;-61
2022/04/19 13:45:53;;;;;;;3.92;1.58;;;;;;;;;;4992925;28;20057;-64
2022/04/19 13:48:18;;;;;;;3.50;1.70;;;;;;;;;;4994633;28;20054;-63
2022/04/19 13:50:45;;;;;;;5.45;1.77;;;;;;;;;;4994313;28;20030;-63
2022/04/19 13:53:10;;;;;;;4.90;1.80;;;;;;;;;;4994444;28;20052;-63
2022/04/19 13:55:36;;;;;;;4.63;1.77;;;;;;;;;;4994672;28;20440;-64
2022/04/19 13:58:03;;;;;;;3.63;1.55;;;;;;;;;;4994394;28;20025;-64
2022/04/19 14:00:28;;;;;;;4.60;2.10;;;;;;;;;;4993607;28;20599;-61
2022/04/19 14:02:54;;;;;;;5.07;2.45;;;;;;;;;;4994228;28;20109;-63
2022/04/19 14:05:21;;;;;;;5.63;2.33;;;;;;;;;;4994066;28;20057;-63
2022/04/19 14:07:46;;;;;;;7.70;2.90;;;;;;;;;;4994451;28;20065;-63
2022/04/19 14:10:12;;;;;;;4.72;2.72;;;;;;;;;;4991189;28;20030;-62
2022/04/19 14:12:38;;;;;;;5.35;2.75;;;;;;;;;;4991992;28;20476;-63
2022/04/19 14:15:05;;;;;;;6.47;2.97;;;;;;;;;;4992701;28;20097;-63
2022/04/19 14:17:32;;;;;;;6.18;2.28;;;;;;;;;;4982561;28;20033;-62
2022/04/19 14:19:58;;;;;;;5.18;2.33;;;;;;;;;;4983711;28;20157;-62
2022/04/19 14:22:25;;;;;;;5.00;1.90;;;;;;;;;;4981052;28;20105;-63
2022/04/19 14:24:55;;;;;;;4.80;2.22;;;;;;;;;;4982408;28;20092;-63
2022/04/19 14:27:20;;;;;;;9.80;2.53;;;;;;;;;;4989905;28;20365;-62
2022/04/19 14:35:17;;;;;;;9.57;3.47;;;;;;;;;;4982973;28;20038;-63
2022/04/19 14:37:43;;;;;;;6.68;3.10;;;;;;;;;;4992214;28;20030;-62
2022/04/19 14:40:09;;;;;;;6.03;2.95;;;;;;;;;;4992350;28;20137;-62
2022/04/19 14:42:35;;;;;;;6.05;3.50;;;;;;;;;;4992096;28;20399;-63
2022/04/19 14:45:00;;;;;;;8.93;3.35;;;;;;;;;;4981892;28;20468;-62
2022/04/19 14:47:26;;;;;;;8.20;4.05;;;;;;;;;;4983132;28;20018;-63
2022/04/19 14:49:51;;;;;;;15.20;5.10;;;;;;;;;;4981928;28;20023;-62
2022/04/19 14:52:18;;;;;;;9.25;4.18;;;;;;;;;;4981941;28;20092;-63
2022/04/19 14:54:46;;;;;;;4.68;2.80;;;;;;;;;;4983200;28;20030;-63
2022/04/19 14:57:13;;;;;;;6.30;2.75;;;;;;;;;;4980941;28;20117;-62
2022/04/19 14:59:39;;;;;;;5.50;3.00;;;;;;;;;;4991876;28;20080;-63
2022/04/19 15:02:04;;;;;;;6.03;2.78;;;;;;;;;;4991815;28;20049;-63
2022/04/19 15:04:30;;;;;;;8.45;3.85;;;;;;;;;;4991641;28;20433;-63
2022/04/19 15:06:57;;;;;;;7.50;4.15;;;;;;;;;;4990498;28;20065;-63
2022/04/19 15:09:22;;;;;;;6.20;2.70;;;;;;;;;;4992111;28;20464;-63
2022/04/19 15:11:48;;;;;;;9.30;3.28;;;;;;;;;;4989186;28;20052;-70
2022/04/19 15:14:14;;;;;;;7.13;3.47;;;;;;;;;;4991488;28;20042;-63
2022/04/19 15:16:39;;;;;;;9.35;4.35;;;;;;;;;;4981255;28;20026;-63
2022/04/19 15:19:05;;;;;;;8.55;3.85;;;;;;;;;;4982982;28;20018;-62
2022/04/19 15:21:31;;;;;;;8.25;5.00;;;;;;;;;;4981400;28;20062;-61
2022/04/19 15:23:56;;;;;;;10.90;4.15;;;;;;;;;;4991423;28;20369;-63
2022/04/19 15:26:22;;;;;;;7.32;3.45;;;;;;;;;;4991338;28;20041;-62
2022/04/19 15:28:51;;;;;;;8.95;3.30;;;;;;;;;;4991400;28;20015;-62
2022/04/19 15:31:16;;;;;;;16.40;3.83;;;;;;;;;;4991333;28;20026;-63
2022/04/19 15:33:42;;;;;;;11.02;3.38;;;;;;;;;;4991447;28;20022;-63
2022/04/19 15:36:08;;;;;;;8.57;4.38;;;;;;;;;;4980611;28;20283;-64
2022/04/19 15:38:33;;;;;;;12.13;4.50;;;;;;;;;;4982159;28;20053;-64